createdAt,value
2022-12-03T00:02:31.213Z,87.37
2022-12-03T00:05:34.180Z,87.24
2022-12-03T00:08:36.801Z,87.12
2022-12-03T00:11:39.763Z,87.21
2022-12-03T00:14:52.290Z,87.39
2022-12-03T00:17:55.147Z,87.18
2022-12-03T00:20:57.991Z,86.90
2022-12-03T00:24:00.763Z,87.38
2022-12-03T00:27:03.727Z,87.64
2022-12-03T00:30:08.044Z,87.67
2022-12-03T00:33:10.759Z,87.91
2022-12-03T00:36:13.451Z,88.47
2022-12-03T00:39:16.321Z,88.27
2022-12-03T00:42:19.125Z,87.93
2022-12-03T00:45:21.811Z,87.61
2022-12-03T00:48:24.543Z,87.37
2022-12-03T00:51:27.777Z,87.01
2022-12-03T00:54:32.314Z,87.22
2022-12-03T00:57:35.175Z,87.06
2022-12-03T01:00:38.114Z,86.85
2022-12-03T01:03:40.715Z,87.45
2022-12-03T01:06:43.972Z,87.24
2022-12-03T01:09:46.478Z,87.09
2022-12-03T01:12:49.241Z,86.95
2022-12-03T01:15:51.874Z,86.67
2022-12-03T01:18:54.966Z,86.85
2022-12-03T01:21:57.537Z,87.13
2022-12-03T01:25:00.371Z,87.50
2022-12-03T01:28:03.008Z,86.86
2022-12-03T01:31:24.281Z,87.11
2022-12-03T01:34:26.940Z,87.06
2022-12-03T01:37:29.956Z,87.17
2022-12-03T01:40:32.720Z,87.17
2022-12-03T01:43:36.016Z,87.12
2022-12-03T01:46:40.747Z,87.28
2022-12-03T01:50:01.772Z,87.20
2022-12-03T01:53:05.077Z,87.14
2022-12-03T01:56:09.591Z,87.68
2022-12-03T01:59:18.509Z,87.65
2022-12-03T02:02:26.219Z,87.55
2022-12-03T02:05:31.273Z,87.60
2022-12-03T02:08:36.789Z,87.61
2022-12-03T02:11:44.226Z,87.62
2022-12-03T02:14:47.871Z,87.33
2022-12-03T02:17:53.267Z,87.21
2022-12-03T02:21:19.224Z,87.33
2022-12-03T02:24:44.718Z,86.87
2022-12-03T02:27:48.647Z,87.17
2022-12-03T02:30:51.554Z,86.94
2022-12-03T02:33:54.373Z,87.13
2022-12-03T02:36:56.899Z,87.73
2022-12-03T02:40:07.046Z,87.53
2022-12-03T02:43:10.635Z,87.23
2022-12-03T02:46:13.606Z,87.45
2022-12-03T02:49:16.310Z,86.99
2022-12-03T02:52:19.700Z,86.56
2022-12-03T02:55:23.487Z,87.18
2022-12-03T02:58:29.252Z,86.79
2022-12-03T03:01:32.711Z,87.01
2022-12-03T03:04:35.779Z,86.66
2022-12-03T03:07:39.656Z,86.97
2022-12-03T03:10:43.669Z,86.77
2022-12-03T03:13:46.413Z,86.56
2022-12-03T03:16:56.321Z,86.33
2022-12-03T03:19:59.231Z,86.35
2022-12-03T03:23:20.599Z,86.20
2022-12-03T03:26:23.264Z,86.75
2022-12-03T03:29:26.412Z,86.69
2022-12-03T03:32:30.476Z,86.67
2022-12-03T03:35:33.691Z,86.47
2022-12-03T03:38:37.053Z,86.59
2022-12-03T03:41:44.827Z,86.72
2022-12-03T03:44:48.216Z,86.56
2022-12-03T03:47:51.122Z,86.85
2022-12-03T03:50:53.962Z,86.84
2022-12-03T03:53:56.858Z,87.11
2022-12-03T03:56:59.986Z,87.02
2022-12-03T04:00:03.025Z,87.03
2022-12-03T04:03:10.098Z,86.85
2022-12-03T04:06:13.106Z,86.94
2022-12-03T04:09:15.583Z,87.09
2022-12-03T04:12:37.071Z,87.09
2022-12-03T04:15:39.569Z,87.37
2022-12-03T04:18:45.481Z,86.99
2022-12-03T04:22:26.488Z,87.42
2022-12-03T04:25:47.923Z,87.53
2022-12-03T04:28:50.781Z,87.38
2022-12-03T04:32:12.408Z,87.69
2022-12-03T04:35:34.040Z,87.79
2022-12-03T04:38:36.975Z,88.23
2022-12-03T04:41:39.781Z,88.16
2022-12-03T04:44:42.826Z,88.23
2022-12-03T04:47:45.542Z,88.37
2022-12-03T04:50:48.666Z,88.12
2022-12-03T04:53:51.343Z,88.81
2022-12-03T04:56:54.140Z,88.31
2022-12-03T04:59:57.043Z,88.43
2022-12-03T05:02:59.873Z,88.15
2022-12-03T05:06:02.662Z,87.99
2022-12-03T05:09:05.579Z,88.61
2022-12-03T05:12:07.978Z,88.35
2022-12-03T05:15:11.762Z,88.25
2022-12-03T05:18:14.237Z,88.16
2022-12-03T05:21:17.293Z,88.65
2022-12-03T05:24:19.782Z,88.51
2022-12-03T05:27:24.185Z,88.58
2022-12-03T05:30:26.983Z,88.70
2022-12-03T05:33:29.907Z,88.27
2022-12-03T05:36:32.337Z,88.13
2022-12-03T05:39:35.158Z,88.25
2022-12-03T05:42:56.518Z,88.16
2022-12-03T05:45:59.642Z,88.00
2022-12-03T05:49:02.290Z,87.48
2022-12-03T05:52:05.544Z,87.78
2022-12-03T05:55:08.791Z,88.84
2022-12-03T05:58:12.427Z,89.51
2022-12-03T06:01:15.100Z,88.73
2022-12-03T06:04:17.872Z,88.65
2022-12-03T06:07:20.310Z,87.97
2022-12-03T06:10:25.456Z,87.64
2022-12-03T06:13:27.835Z,88.20
2022-12-03T06:16:30.904Z,87.59
2022-12-03T06:19:33.847Z,88.09
2022-12-03T06:22:36.858Z,88.33
2022-12-03T06:25:39.611Z,87.91
2022-12-03T06:28:46.607Z,87.68
2022-12-03T06:31:49.300Z,87.91
2022-12-03T06:34:52.354Z,87.87
2022-12-03T06:37:55.297Z,87.61
2022-12-03T06:40:58.363Z,88.16
2022-12-03T06:44:00.825Z,88.95
2022-12-03T06:47:04.079Z,88.41
2022-12-03T06:50:08.424Z,87.77
2022-12-03T06:53:11.315Z,87.24
2022-12-03T06:56:14.127Z,86.80
2022-12-03T06:59:16.783Z,86.39
2022-12-03T07:02:20.576Z,86.24
2022-12-03T07:05:23.194Z,85.62
2022-12-03T07:08:25.914Z,86.01
2022-12-03T07:11:31.818Z,85.59
2022-12-03T07:14:34.279Z,85.10
2022-12-03T07:17:36.908Z,83.93
2022-12-03T07:20:39.512Z,82.80
2022-12-03T07:23:42.295Z,83.19
2022-12-03T07:26:44.985Z,81.58
2022-12-03T07:29:47.687Z,80.12
2022-12-03T07:32:50.395Z,78.31
2022-12-03T07:35:53.183Z,76.17
2022-12-03T07:38:55.801Z,74.51
2022-12-03T07:41:58.935Z,73.65
2022-12-03T07:45:01.439Z,73.43
2022-12-03T07:48:04.317Z,72.79
2022-12-03T07:51:06.900Z,72.30
2022-12-03T07:54:09.909Z,72.77
2022-12-03T07:57:12.478Z,72.00
2022-12-03T08:00:15.811Z,72.41
2022-12-03T08:03:18.577Z,72.11
2022-12-03T08:06:21.812Z,69.58
2022-12-03T08:09:24.599Z,68.39
2022-12-03T08:12:40.514Z,66.97
2022-12-03T08:15:43.430Z,67.45
2022-12-03T08:18:47.505Z,66.34
2022-12-03T08:21:50.261Z,66.44
2022-12-03T08:24:54.418Z,66.78
2022-12-03T08:28:16.357Z,65.17
2022-12-03T08:31:32.908Z,64.07
2022-12-03T08:34:42.311Z,62.65
2022-12-03T08:37:45.011Z,61.68
2022-12-03T08:40:50.064Z,60.30
2022-12-03T08:43:52.783Z,60.61
2022-12-03T08:47:19.816Z,57.12
2022-12-03T08:50:32.008Z,55.83
2022-12-03T08:53:41.601Z,55.48
2022-12-03T08:56:45.119Z,55.10
2022-12-03T08:59:47.950Z,53.73
2022-12-03T09:02:53.072Z,53.10
2022-12-03T09:05:55.756Z,54.04
2022-12-03T09:09:01.186Z,51.84
2022-12-03T09:12:07.882Z,54.21
2022-12-03T09:15:11.163Z,52.32
2022-12-03T09:18:14.658Z,54.70
2022-12-03T09:21:17.700Z,51.31
2022-12-03T09:24:20.637Z,50.91
2022-12-03T09:27:23.680Z,51.05
2022-12-03T09:30:26.132Z,51.15
2022-12-03T09:33:29.612Z,51.13
2022-12-03T09:36:32.428Z,53.43
2022-12-03T09:39:35.619Z,52.82
2022-12-03T09:42:38.454Z,52.80
2022-12-03T09:45:41.580Z,50.88
2022-12-03T09:48:44.143Z,53.59
2022-12-03T09:51:46.944Z,52.67
2022-12-03T09:54:49.847Z,52.79
2022-12-03T09:57:54.300Z,51.82
2022-12-03T10:00:57.339Z,52.24
2022-12-03T10:04:00.097Z,52.53
2022-12-03T10:07:02.767Z,51.51
2022-12-03T10:10:08.017Z,50.70
2022-12-03T10:13:26.219Z,48.67
2022-12-03T10:16:30.610Z,48.93
2022-12-03T10:19:35.806Z,48.23
2022-12-03T10:22:38.785Z,48.39
2022-12-03T10:26:04.164Z,48.32
2022-12-03T10:29:34.915Z,47.29
2022-12-03T10:32:49.055Z,48.06
2022-12-03T10:35:51.665Z,46.59
2022-12-03T10:39:15.269Z,47.36
2022-12-03T10:42:19.451Z,48.74
2022-12-03T10:45:23.147Z,49.43
2022-12-03T10:48:27.685Z,48.98
2022-12-03T10:51:30.982Z,50.78
2022-12-03T10:54:35.574Z,51.92
2022-12-03T10:57:42.376Z,51.97
2022-12-03T11:00:48.547Z,51.43
2022-12-03T11:03:52.198Z,49.43
2022-12-03T11:06:55.623Z,49.62
2022-12-03T11:10:00.193Z,51.34
2022-12-03T11:13:44.408Z,52.80
2022-12-03T11:16:46.756Z,53.17
2022-12-03T11:19:50.107Z,53.05
2022-12-03T11:22:54.025Z,52.66
2022-12-03T11:25:56.699Z,53.95
2022-12-03T11:28:59.827Z,54.24
2022-12-03T11:32:02.469Z,53.54
2022-12-03T11:35:23.161Z,53.46
2022-12-03T11:38:55.540Z,54.18
2022-12-03T11:42:25.943Z,54.18
2022-12-03T11:45:32.309Z,55.76
2022-12-03T11:48:44.298Z,54.82
2022-12-03T11:51:47.251Z,53.16
2022-12-03T11:54:53.949Z,53.69
2022-12-03T11:58:05.299Z,54.62
2022-12-03T12:01:08.521Z,55.94
2022-12-03T12:04:35.223Z,53.73
2022-12-03T12:07:37.960Z,53.87
2022-12-03T12:10:49.101Z,53.17
2022-12-03T12:13:54.686Z,52.17
2022-12-03T12:16:58.667Z,54.17
2022-12-03T12:20:28.035Z,51.93
2022-12-03T12:23:30.577Z,52.80
2022-12-03T12:26:33.059Z,53.17
2022-12-03T12:29:37.072Z,51.88
2022-12-03T12:33:11.207Z,51.13
2022-12-03T12:36:14.145Z,52.90
2022-12-03T12:39:16.627Z,52.64
2022-12-03T12:42:38.602Z,52.51
2022-12-03T12:45:43.297Z,52.30
2022-12-03T12:48:45.883Z,52.83
2022-12-03T12:51:49.647Z,53.32
2022-12-03T12:54:52.281Z,53.51
2022-12-03T12:58:11.435Z,53.46
2022-12-03T13:01:32.438Z,54.20
2022-12-03T13:04:40.011Z,54.35
2022-12-03T13:07:44.208Z,55.00
2022-12-03T13:10:47.741Z,54.34
2022-12-03T13:13:51.050Z,56.09
2022-12-03T13:16:56.667Z,56.18
2022-12-03T13:20:07.582Z,56.85
2022-12-03T13:23:28.026Z,58.60
2022-12-03T13:26:40.076Z,59.22
2022-12-03T13:29:43.162Z,59.25
2022-12-03T13:32:45.642Z,59.95
2022-12-03T13:35:48.326Z,60.25
2022-12-03T13:38:51.153Z,60.21
2022-12-03T13:42:13.551Z,60.74
2022-12-03T13:45:19.045Z,61.88
2022-12-03T13:48:23.851Z,62.18
2022-12-03T13:51:29.829Z,63.10
2022-12-03T13:54:32.912Z,64.44
2022-12-03T13:57:35.417Z,64.45
2022-12-03T14:00:39.284Z,64.60
2022-12-03T14:03:41.961Z,66.25
2022-12-03T14:06:44.625Z,66.59
2022-12-03T14:09:47.135Z,67.59
2022-12-03T14:12:50.163Z,68.01
2022-12-03T14:15:52.625Z,68.52
2022-12-03T14:18:55.614Z,69.30
2022-12-03T14:22:00.232Z,69.81
2022-12-03T14:25:02.878Z,70.00
2022-12-03T14:28:08.705Z,70.90
2022-12-03T14:31:11.709Z,71.31
2022-12-03T14:34:14.306Z,72.01
2022-12-03T14:37:17.789Z,72.11
2022-12-03T14:40:22.006Z,72.75
2022-12-03T14:43:25.210Z,73.80
2022-12-03T14:46:27.844Z,73.70
2022-12-03T14:49:31.759Z,73.92
2022-12-03T14:52:36.559Z,73.90
2022-12-03T14:55:39.199Z,74.76
2022-12-03T14:58:41.869Z,74.64
2022-12-03T15:01:44.705Z,75.63
2022-12-03T15:04:47.347Z,76.18
2022-12-03T15:07:50.487Z,76.00
2022-12-03T15:10:52.947Z,76.26
2022-12-03T15:13:55.839Z,76.83
2022-12-03T15:16:58.767Z,76.95
2022-12-03T15:20:01.855Z,77.21
2022-12-03T15:23:06.304Z,76.82
2022-12-03T15:26:10.719Z,77.61
2022-12-03T15:29:13.524Z,77.87
2022-12-03T15:32:16.363Z,78.92
2022-12-03T15:35:19.036Z,80.17
2022-12-03T15:38:21.752Z,81.65
2022-12-03T15:41:28.956Z,80.77
2022-12-03T15:44:31.935Z,80.30
2022-12-03T15:47:34.434Z,79.78
2022-12-03T15:50:40.304Z,80.17
2022-12-03T15:53:43.170Z,78.79
2022-12-03T15:56:46.234Z,78.79
2022-12-03T15:59:49.075Z,79.15
2022-12-03T16:02:53.055Z,79.18
2022-12-03T16:05:56.030Z,79.60
2022-12-03T16:08:59.106Z,79.84
2022-12-03T16:12:01.921Z,80.10
2022-12-03T16:15:05.335Z,79.75
2022-12-03T16:18:08.113Z,79.69
2022-12-03T16:21:11.063Z,79.86
2022-12-03T16:24:13.651Z,80.23
2022-12-03T16:27:16.390Z,79.72
2022-12-03T16:30:19.218Z,80.19
2022-12-03T16:33:27.209Z,80.51
2022-12-03T16:36:30.589Z,80.69
2022-12-03T16:39:33.396Z,80.41
2022-12-03T16:42:37.348Z,80.82
2022-12-03T16:45:46.479Z,80.29
2022-12-03T16:48:49.543Z,80.60
2022-12-03T16:51:52.797Z,80.67
2022-12-03T16:54:55.434Z,81.01
2022-12-03T16:57:58.326Z,81.63
2022-12-03T17:01:00.966Z,81.60
2022-12-03T17:04:04.950Z,81.18
2022-12-03T17:07:07.625Z,81.88
2022-12-03T17:10:11.419Z,81.82
2022-12-03T17:13:15.359Z,81.23
2022-12-03T17:16:18.553Z,82.59
2022-12-03T17:19:21.142Z,81.84
2022-12-03T17:22:23.967Z,82.65
2022-12-03T17:25:27.339Z,81.92
2022-12-03T17:28:30.515Z,81.85
2022-12-03T17:31:38.386Z,81.92
2022-12-03T17:34:44.474Z,81.45
2022-12-03T17:37:47.184Z,81.77
2022-12-03T17:40:50.499Z,82.30
2022-12-03T17:43:53.915Z,82.01
2022-12-03T17:46:57.047Z,82.20
2022-12-03T17:49:59.822Z,82.61
2022-12-03T17:53:05.542Z,82.76
2022-12-03T17:56:08.136Z,82.41
2022-12-03T17:59:12.013Z,83.57
2022-12-03T18:02:15.257Z,83.08
2022-12-03T18:05:18.599Z,83.02
2022-12-03T18:08:21.303Z,83.97
2022-12-03T18:11:24.449Z,84.18
2022-12-03T18:14:27.236Z,84.39
2022-12-03T18:17:30.360Z,83.71
2022-12-03T18:20:33.108Z,83.75
2022-12-03T18:23:36.208Z,83.48
2022-12-03T18:26:38.945Z,83.17
2022-12-03T18:29:41.651Z,83.73
2022-12-03T18:32:44.586Z,83.77
2022-12-03T18:35:47.691Z,84.09
2022-12-03T18:38:53.058Z,83.16
2022-12-03T18:41:56.239Z,82.76
2022-12-03T18:44:59.727Z,83.40
2022-12-03T18:48:02.939Z,83.79
2022-12-03T18:51:17.808Z,84.54
2022-12-03T18:54:20.959Z,84.24
2022-12-03T18:57:23.739Z,83.70
2022-12-03T19:00:27.081Z,83.24
2022-12-03T19:03:30.777Z,83.21
2022-12-03T19:06:33.473Z,82.97
2022-12-03T19:09:36.324Z,83.82
2022-12-03T19:12:39.662Z,84.10
2022-12-03T19:15:42.527Z,83.04
2022-12-03T19:18:46.252Z,83.89
2022-12-03T19:21:48.790Z,84.23
2022-12-03T19:24:52.466Z,84.04
2022-12-03T19:27:57.026Z,84.36
2022-12-03T19:31:02.914Z,84.88
2022-12-03T19:34:05.900Z,85.77
2022-12-03T19:37:08.840Z,85.45
2022-12-03T19:40:12.064Z,85.51
2022-12-03T19:43:15.063Z,86.05
2022-12-03T19:46:20.175Z,86.55
2022-12-03T19:49:24.124Z,85.95
2022-12-03T19:52:27.034Z,85.75
2022-12-03T19:55:30.507Z,86.08
2022-12-03T19:58:33.787Z,85.99
2022-12-03T20:01:40.496Z,85.56
2022-12-03T20:04:43.611Z,85.78
2022-12-03T20:07:46.545Z,85.68
2022-12-03T20:10:50.152Z,85.89
2022-12-03T20:13:55.603Z,85.67
2022-12-03T20:16:58.892Z,86.11
2022-12-03T20:20:02.447Z,85.82
2022-12-03T20:23:05.313Z,85.74
2022-12-03T20:26:17.115Z,85.74
2022-12-03T20:29:22.096Z,85.58
2022-12-03T20:32:25.151Z,86.25
2022-12-03T20:35:28.154Z,87.26
2022-12-03T20:38:32.452Z,86.60
2022-12-03T20:41:36.097Z,87.48
2022-12-03T20:44:39.256Z,87.17
2022-12-03T20:47:42.088Z,87.17
2022-12-03T20:50:45.084Z,86.59
2022-12-03T20:53:48.035Z,86.71
2022-12-03T20:56:51.264Z,87.36
2022-12-03T20:59:56.977Z,87.08
2022-12-03T21:03:00.138Z,86.20
2022-12-03T21:06:03.144Z,86.41
2022-12-03T21:09:07.382Z,86.69
2022-12-03T21:12:10.129Z,86.53
2022-12-03T21:15:12.807Z,86.64
2022-12-03T21:18:17.015Z,86.79
2022-12-03T21:21:21.117Z,85.98
2022-12-03T21:24:23.867Z,86.50
2022-12-03T21:27:26.792Z,87.25
2022-12-03T21:30:29.864Z,86.71
2022-12-03T21:33:33.444Z,86.52
2022-12-03T21:36:36.630Z,86.60
2022-12-03T21:39:40.595Z,86.60
2022-12-03T21:42:43.253Z,86.86
2022-12-03T21:45:46.491Z,86.64
2022-12-03T21:48:50.117Z,86.17
2022-12-03T21:51:52.783Z,86.00
2022-12-03T21:54:56.002Z,86.38
2022-12-03T21:57:59.116Z,86.26
2022-12-03T22:01:15.649Z,86.50
2022-12-03T22:04:18.775Z,87.49
2022-12-03T22:07:21.411Z,87.78
2022-12-03T22:10:24.361Z,86.71
2022-12-03T22:13:27.096Z,86.70
2022-12-03T22:16:30.365Z,86.32
2022-12-03T22:19:32.882Z,86.37
2022-12-03T22:22:35.762Z,86.69
2022-12-03T22:25:38.188Z,86.62
2022-12-03T22:28:45.314Z,87.02
2022-12-03T22:31:47.945Z,87.09
2022-12-03T22:34:50.727Z,87.27
2022-12-03T22:37:53.611Z,86.86
2022-12-03T22:40:56.755Z,87.22
2022-12-03T22:43:59.443Z,87.74
2022-12-03T22:47:02.391Z,87.17
2022-12-03T22:50:05.563Z,86.92
2022-12-03T22:53:08.509Z,86.45
2022-12-03T22:56:11.356Z,86.85
2022-12-03T22:59:14.263Z,87.53
2022-12-03T23:02:17.066Z,87.81
2022-12-03T23:05:19.821Z,87.72
2022-12-03T23:08:22.709Z,87.95
2022-12-03T23:11:26.853Z,87.13
2022-12-03T23:14:29.681Z,86.56
2022-12-03T23:17:32.751Z,86.58
2022-12-03T23:20:45.258Z,86.79
2022-12-03T23:23:48.025Z,86.49
2022-12-03T23:26:50.595Z,86.50
2022-12-03T23:29:54.019Z,86.75
2022-12-03T23:32:57.147Z,87.87
2022-12-03T23:35:59.770Z,88.08
2022-12-03T23:39:02.831Z,88.24
2022-12-03T23:42:05.540Z,88.16
2022-12-03T23:45:08.572Z,88.35
2022-12-03T23:48:11.447Z,87.32
2022-12-03T23:51:17.115Z,88.06
2022-12-03T23:54:20.055Z,87.70
2022-12-03T23:57:22.503Z,87.61
